sensor_id;sensor_type;location;lat;lon;timestamp;P1;P2;P0
65556;PMS3003;52200;53.490;14.376;2024-02-26T00:01:27;36.50;27.50;15.75
65556;PMS3003;52200;53.490;14.376;2024-02-26T00:03:53;39.60;23.00;13.20
65556;PMS3003;52200;53.490;14.376;2024-02-26T00:06:20;33.80;20.40;13.40
65556;PMS3003;52200;53.490;14.376;2024-02-26T00:08:46;33.00;20.75;11.25
65556;PMS3003;52200;53.490;14.376;2024-02-26T00:11:11;25.00;17.50;12.00
65556;PMS3003;52200;53.490;14.376;2024-02-26T00:13:37;29.00;20.00;11.50
65556;PMS3003;52200;53.490;14.376;2024-02-26T00:16:03;30.25;19.25;12.00
65556;PMS3003;52200;53.490;14.376;2024-02-26T00:18:29;27.80;17.20;10.20
65556;PMS3003;52200;53.490;14.376;2024-02-26T00:20:54;31.50;18.75;10.00
65556;PMS3003;52200;53.490;14.376;2024-02-26T00:23:20;24.75;17.00;8.25
65556;PMS3003;52200;53.490;14.376;2024-02-26T00:25:45;28.25;17.25;9.25
65556;PMS3003;52200;53.490;14.376;2024-02-26T00:28:11;25.50;16.25;9.00
65556;PMS3003;52200;53.490;14.376;2024-02-26T00:30:38;29.60;17.00;10.00
65556;PMS3003;52200;53.490;14.376;2024-02-26T00:33:04;25.00;15.75;8.25
65556;PMS3003;52200;53.490;14.376;2024-02-26T00:35:29;25.75;13.25;8.50
65556;PMS3003;52200;53.490;14.376;2024-02-26T00:37:55;27.50;13.75;6.50
65556;PMS3003;52200;53.490;14.376;2024-02-26T00:40:20;25.00;15.25;8.75
65556;PMS3003;52200;53.490;14.376;2024-02-26T00:42:45;24.00;15.50;6.00
65556;PMS3003;52200;53.490;14.376;2024-02-26T00:45:12;30.20;15.20;9.00
65556;PMS3003;52200;53.490;14.376;2024-02-26T00:47:38;26.00;16.25;9.00
65556;PMS3003;52200;53.490;14.376;2024-02-26T00:50:06;30.80;16.00;8.60
65556;PMS3003;52200;53.490;14.376;2024-02-26T00:52:32;32.60;14.60;9.00
65556;PMS3003;52200;53.490;14.376;2024-02-26T00:54:57;24.00;15.00;8.50
65556;PMS3003;52200;53.490;14.376;2024-02-26T00:57:23;30.25;16.00;8.75
65556;PMS3003;52200;53.490;14.376;2024-02-26T00:59:48;29.75;15.00;8.75
65556;PMS3003;52200;53.490;14.376;2024-02-26T01:02:15;30.20;16.80;11.80
65556;PMS3003;52200;53.490;14.376;2024-02-26T01:04:41;35.00;20.50;9.25
65556;PMS3003;52200;53.490;14.376;2024-02-26T01:07:06;30.00;19.00;9.00
65556;PMS3003;52200;53.490;14.376;2024-02-26T01:09:32;34.00;20.50;11.00
65556;PMS3003;52200;53.490;14.376;2024-02-26T01:11:58;31.60;17.80;9.40
65556;PMS3003;52200;53.490;14.376;2024-02-26T01:14:23;28.50;18.25;11.50
65556;PMS3003;52200;53.490;14.376;2024-02-26T01:16:49;31.75;19.25;9.75
65556;PMS3003;52200;53.490;14.376;2024-02-26T01:19:14;28.75;19.00;8.50
65556;PMS3003;52200;53.490;14.376;2024-02-26T01:21:40;31.25;17.50;11.25
65556;PMS3003;52200;53.490;14.376;2024-02-26T01:24:06;26.00;18.25;9.25
65556;PMS3003;52200;53.490;14.376;2024-02-26T01:26:32;26.00;17.80;9.00
65556;PMS3003;52200;53.490;14.376;2024-02-26T01:28:57;29.00;18.50;11.25
65556;PMS3003;52200;53.490;14.376;2024-02-26T01:31:23;36.75;24.00;14.00
65556;PMS3003;52200;53.490;14.376;2024-02-26T01:33:48;28.00;18.00;10.50
65556;PMS3003;52200;53.490;14.376;2024-02-26T01:36:14;29.50;19.75;11.00
65556;PMS3003;52200;53.490;14.376;2024-02-26T01:38:39;34.25;20.00;11.75
65556;PMS3003;52200;53.490;14.376;2024-02-26T01:41:05;26.75;16.75;9.75
65556;PMS3003;52200;53.490;14.376;2024-02-26T01:43:31;31.00;16.80;9.80
65556;PMS3003;52200;53.490;14.376;2024-02-26T01:45:57;28.00;15.00;8.75
65556;PMS3003;52200;53.490;14.376;2024-02-26T01:48:23;32.40;18.00;11.80
65556;PMS3003;52200;53.490;14.376;2024-02-26T01:50:48;35.75;19.00;10.75
65556;PMS3003;52200;53.490;14.376;2024-02-26T01:53:14;27.40;18.80;10.60
65556;PMS3003;52200;53.490;14.376;2024-02-26T01:55:41;27.80;18.40;11.00
65556;PMS3003;52200;53.490;14.376;2024-02-26T01:58:07;34.00;23.50;13.00
65556;PMS3003;52200;53.490;14.376;2024-02-26T02:00:32;35.00;20.50;12.25
65556;PMS3003;52200;53.490;14.376;2024-02-26T02:02:58;33.75;21.25;13.75
65556;PMS3003;52200;53.490;14.376;2024-02-26T02:05:24;32.00;20.75;11.00
65556;PMS3003;52200;53.490;14.376;2024-02-26T02:07:51;34.20;21.00;13.80
65556;PMS3003;52200;53.490;14.376;2024-02-26T02:10:17;36.20;20.40;11.00
65556;PMS3003;52200;53.490;14.376;2024-02-26T02:12:47;34.80;20.60;11.00
65556;PMS3003;52200;53.490;14.376;2024-02-26T02:15:13;30.75;20.00;10.50
65556;PMS3003;52200;53.490;14.376;2024-02-26T02:17:39;34.00;18.00;10.00
65556;PMS3003;52200;53.490;14.376;2024-02-26T02:20:07;43.50;21.00;11.00
65556;PMS3003;52200;53.490;14.376;2024-02-26T02:22:34;29.40;18.60;10.20
65556;PMS3003;52200;53.490;14.376;2024-02-26T02:24:59;28.25;19.75;10.25
65556;PMS3003;52200;53.490;14.376;2024-02-26T02:27:25;30.00;17.75;10.00
65556;PMS3003;52200;53.490;14.376;2024-02-26T02:29:52;34.60;19.20;10.60
65556;PMS3003;52200;53.490;14.376;2024-02-26T02:32:18;28.80;17.20;10.00
65556;PMS3003;52200;53.490;14.376;2024-02-26T02:34:44;38.20;22.20;13.00
65556;PMS3003;52200;53.490;14.376;2024-02-26T02:37:10;32.80;17.40;8.80
65556;PMS3003;52200;53.490;14.376;2024-02-26T02:39:36;29.75;20.00;10.75
65556;PMS3003;52200;53.490;14.376;2024-02-26T02:42:01;27.25;18.75;10.75
65556;PMS3003;52200;53.490;14.376;2024-02-26T02:44:27;31.50;16.00;10.00
65556;PMS3003;52200;53.490;14.376;2024-02-26T02:46:52;29.50;16.00;8.25
65556;PMS3003;52200;53.490;14.376;2024-02-26T02:49:18;31.00;18.75;10.75
65556;PMS3003;52200;53.490;14.376;2024-02-26T02:51:44;33.75;19.00;11.50
65556;PMS3003;52200;53.490;14.376;2024-02-26T02:54:09;28.50;17.00;10.75
65556;PMS3003;52200;53.490;14.376;2024-02-26T02:56:34;26.00;16.00;7.50
65556;PMS3003;52200;53.490;14.376;2024-02-26T02:59:00;27.75;14.00;8.00
65556;PMS3003;52200;53.490;14.376;2024-02-26T03:01:27;23.40;14.00;7.40
65556;PMS3003;52200;53.490;14.376;2024-02-26T03:03:52;28.00;15.00;8.75
65556;PMS3003;52200;53.490;14.376;2024-02-26T03:06:17;26.25;14.50;8.00
65556;PMS3003;52200;53.490;14.376;2024-02-26T03:08:43;30.75;16.00;8.00
65556;PMS3003;52200;53.490;14.376;2024-02-26T03:11:12;25.40;15.20;7.00
65556;PMS3003;52200;53.490;14.376;2024-02-26T03:13:40;28.20;16.40;8.00
65556;PMS3003;52200;53.490;14.376;2024-02-26T03:16:05;22.75;13.00;7.00
65556;PMS3003;52200;53.490;14.376;2024-02-26T03:18:31;24.00;13.80;8.00
65556;PMS3003;52200;53.490;14.376;2024-02-26T03:20:56;38.75;18.25;9.75
65556;PMS3003;52200;53.490;14.376;2024-02-26T03:23:22;23.75;14.00;7.25
65556;PMS3003;52200;53.490;14.376;2024-02-26T03:25:47;29.00;14.00;8.00
65556;PMS3003;52200;53.490;14.376;2024-02-26T03:28:13;25.00;13.50;9.00
65556;PMS3003;52200;53.490;14.376;2024-02-26T03:30:39;26.50;13.75;8.75
65556;PMS3003;52200;53.490;14.376;2024-02-26T03:33:04;28.25;15.50;9.00
65556;PMS3003;52200;53.490;14.376;2024-02-26T03:35:30;28.50;15.00;7.00
65556;PMS3003;52200;53.490;14.376;2024-02-26T03:37:55;24.00;12.25;5.75
65556;PMS3003;52200;53.490;14.376;2024-02-26T03:40:20;21.25;11.25;7.00
65556;PMS3003;52200;53.490;14.376;2024-02-26T03:42:46;24.00;13.00;7.00
65556;PMS3003;52200;53.490;14.376;2024-02-26T03:45:12;27.00;13.00;6.25
65556;PMS3003;52200;53.490;14.376;2024-02-26T03:47:37;21.25;12.00;7.00
65556;PMS3003;52200;53.490;14.376;2024-02-26T03:50:06;22.20;11.00;5.80
65556;PMS3003;52200;53.490;14.376;2024-02-26T03:52:32;23.00;11.00;6.40
65556;PMS3003;52200;53.490;14.376;2024-02-26T03:54:59;28.40;12.20;6.20
65556;PMS3003;52200;53.490;14.376;2024-02-26T03:57:24;18.75;9.75;6.00
65556;PMS3003;52200;53.490;14.376;2024-02-26T03:59:50;25.75;12.75;6.75
65556;PMS3003;52200;53.490;14.376;2024-02-26T04:02:16;23.25;12.00;6.00
65556;PMS3003;52200;53.490;14.376;2024-02-26T04:04:41;24.00;12.80;4.60
65556;PMS3003;52200;53.490;14.376;2024-02-26T04:07:07;26.00;12.25;6.75
65556;PMS3003;52200;53.490;14.376;2024-02-26T04:09:33;23.00;10.00;4.20
65556;PMS3003;52200;53.490;14.376;2024-02-26T04:11:59;20.60;10.00;5.80
65556;PMS3003;52200;53.490;14.376;2024-02-26T04:14:24;23.25;12.25;7.00
65556;PMS3003;52200;53.490;14.376;2024-02-26T04:16:50;23.50;14.25;6.00
65556;PMS3003;52200;53.490;14.376;2024-02-26T04:19:17;20.80;12.00;4.60
65556;PMS3003;52200;53.490;14.376;2024-02-26T04:21:43;19.60;9.00;4.40
65556;PMS3003;52200;53.490;14.376;2024-02-26T04:24:09;16.40;7.20;4.00
65556;PMS3003;52200;53.490;14.376;2024-02-26T04:26:34;17.50;8.00;3.75
65556;PMS3003;52200;53.490;14.376;2024-02-26T04:29:00;23.00;9.75;5.75
65556;PMS3003;52200;53.490;14.376;2024-02-26T04:31:25;21.25;10.00;4.25
65556;PMS3003;52200;53.490;14.376;2024-02-26T04:33:54;20.40;11.40;5.20
65556;PMS3003;52200;53.490;14.376;2024-02-26T04:36:19;19.50;9.25;3.25
65556;PMS3003;52200;53.490;14.376;2024-02-26T04:38:45;20.75;9.00;3.50
65556;PMS3003;52200;53.490;14.376;2024-02-26T04:41:10;19.00;9.00;4.00
65556;PMS3003;52200;53.490;14.376;2024-02-26T04:43:36;17.00;8.25;5.00
65556;PMS3003;52200;53.490;14.376;2024-02-26T04:46:09;23.40;11.20;5.80
65556;PMS3003;52200;53.490;14.376;2024-02-26T04:48:37;20.40;9.00;4.00
65556;PMS3003;52200;53.490;14.376;2024-02-26T04:51:07;19.00;9.40;4.00
65556;PMS3003;52200;53.490;14.376;2024-02-26T04:53:32;19.00;7.00;4.00
65556;PMS3003;52200;53.490;14.376;2024-02-26T04:55:58;29.50;13.00;6.50
65556;PMS3003;52200;53.490;14.376;2024-02-26T04:58:23;21.50;10.00;4.00
65556;PMS3003;52200;53.490;14.376;2024-02-26T05:00:49;20.75;12.50;5.25
65556;PMS3003;52200;53.490;14.376;2024-02-26T05:03:14;26.25;13.25;6.00
65556;PMS3003;52200;53.490;14.376;2024-02-26T05:05:41;32.40;19.40;10.00
65556;PMS3003;52200;53.490;14.376;2024-02-26T05:08:07;26.80;17.40;9.80
65556;PMS3003;52200;53.490;14.376;2024-02-26T05:10:33;29.50;16.25;8.75
65556;PMS3003;52200;53.490;14.376;2024-02-26T05:12:59;36.20;17.40;9.20
65556;PMS3003;52200;53.490;14.376;2024-02-26T05:15:25;39.00;21.00;12.00
65556;PMS3003;52200;53.490;14.376;2024-02-26T05:17:50;34.25;21.25;11.00
65556;PMS3003;52200;53.490;14.376;2024-02-26T05:20:16;29.50;16.00;9.25
65556;PMS3003;52200;53.490;14.376;2024-02-26T05:22:41;30.00;20.50;12.00
65556;PMS3003;52200;53.490;14.376;2024-02-26T05:25:07;34.50;19.50;9.00
65556;PMS3003;52200;53.490;14.376;2024-02-26T05:27:32;34.25;20.00;9.25
65556;PMS3003;52200;53.490;14.376;2024-02-26T05:29:58;31.00;18.75;9.50
65556;PMS3003;52200;53.490;14.376;2024-02-26T05:32:23;24.25;11.75;7.00
65556;PMS3003;52200;53.490;14.376;2024-02-26T05:34:49;24.75;15.25;8.00
65556;PMS3003;52200;53.490;14.376;2024-02-26T05:37:14;29.25;16.00;9.00
65556;PMS3003;52200;53.490;14.376;2024-02-26T05:39:40;32.00;15.50;8.25
65556;PMS3003;52200;53.490;14.376;2024-02-26T05:42:05;29.25;15.00;7.75
65556;PMS3003;52200;53.490;14.376;2024-02-26T05:44:31;25.25;15.50;6.50
65556;PMS3003;52200;53.490;14.376;2024-02-26T05:46:56;25.00;14.00;6.25
65556;PMS3003;52200;53.490;14.376;2024-02-26T05:49:22;29.50;15.00;9.00
65556;PMS3003;52200;53.490;14.376;2024-02-26T05:51:47;25.60;17.20;7.00
65556;PMS3003;52200;53.490;14.376;2024-02-26T05:54:13;30.50;17.25;8.25
65556;PMS3003;52200;53.490;14.376;2024-02-26T05:56:39;32.75;16.25;8.25
65556;PMS3003;52200;53.490;14.376;2024-02-26T05:59:05;28.00;18.80;10.40
65556;PMS3003;52200;53.490;14.376;2024-02-26T06:01:30;33.75;19.00;10.75
65556;PMS3003;52200;53.490;14.376;2024-02-26T06:03:56;32.00;21.00;11.00
65556;PMS3003;52200;53.490;14.376;2024-02-26T06:06:22;34.20;19.00;10.80
65556;PMS3003;52200;53.490;14.376;2024-02-26T06:08:48;33.75;20.00;12.00
65556;PMS3003;52200;53.490;14.376;2024-02-26T06:11:14;41.00;21.80;11.60
65556;PMS3003;52200;53.490;14.376;2024-02-26T06:13:40;34.00;21.20;10.00
65556;PMS3003;52200;53.490;14.376;2024-02-26T06:16:07;30.50;18.75;12.00
65556;PMS3003;52200;53.490;14.376;2024-02-26T06:18:33;34.80;22.20;13.20
65556;PMS3003;52200;53.490;14.376;2024-02-26T06:20:58;37.50;23.50;12.50
65556;PMS3003;52200;53.490;14.376;2024-02-26T06:23:24;44.00;23.80;12.60
65556;PMS3003;52200;53.490;14.376;2024-02-26T06:25:50;33.20;22.20;12.40
65556;PMS3003;52200;53.490;14.376;2024-02-26T06:28:17;52.00;30.00;15.40
65556;PMS3003;52200;53.490;14.376;2024-02-26T06:30:42;31.00;18.50;9.75
65556;PMS3003;52200;53.490;14.376;2024-02-26T06:33:08;33.50;19.50;10.00
65556;PMS3003;52200;53.490;14.376;2024-02-26T06:35:33;31.25;19.25;9.00
65556;PMS3003;52200;53.490;14.376;2024-02-26T06:37:59;30.75;16.00;9.00
65556;PMS3003;52200;53.490;14.376;2024-02-26T06:40:24;30.75;17.75;9.50
65556;PMS3003;52200;53.490;14.376;2024-02-26T06:42:50;41.75;18.50;10.00
65556;PMS3003;52200;53.490;14.376;2024-02-26T06:45:16;30.75;18.25;8.25
65556;PMS3003;52200;53.490;14.376;2024-02-26T06:47:42;34.60;21.20;11.80
65556;PMS3003;52200;53.490;14.376;2024-02-26T06:50:08;41.25;23.75;13.50
65556;PMS3003;52200;53.490;14.376;2024-02-26T06:52:34;44.20;26.40;16.00
65556;PMS3003;52200;53.490;14.376;2024-02-26T06:54:59;41.75;25.00;15.25
65556;PMS3003;52200;53.490;14.376;2024-02-26T06:57:24;39.25;23.50;12.00
65556;PMS3003;52200;53.490;14.376;2024-02-26T06:59:50;45.20;25.20;14.80
65556;PMS3003;52200;53.490;14.376;2024-02-26T07:02:17;51.75;28.00;16.25
65556;PMS3003;52200;53.490;14.376;2024-02-26T07:04:43;38.40;26.40;17.00
65556;PMS3003;52200;53.490;14.376;2024-02-26T07:07:08;51.25;30.00;16.25
65556;PMS3003;52200;53.490;14.376;2024-02-26T07:09:34;39.20;24.60;15.00
65556;PMS3003;52200;53.490;14.376;2024-02-26T07:12:00;45.25;25.00;16.50
65556;PMS3003;52200;53.490;14.376;2024-02-26T07:14:25;44.25;27.00;15.50
65556;PMS3003;52200;53.490;14.376;2024-02-26T07:16:51;36.50;22.00;12.00
65556;PMS3003;52200;53.490;14.376;2024-02-26T07:19:16;31.00;18.25;10.75
65556;PMS3003;52200;53.490;14.376;2024-02-26T07:21:42;30.00;21.75;10.00
65556;PMS3003;52200;53.490;14.376;2024-02-26T07:24:07;29.50;19.50;11.00
65556;PMS3003;52200;53.490;14.376;2024-02-26T07:26:33;33.40;19.80;10.80
65556;PMS3003;52200;53.490;14.376;2024-02-26T07:28:59;31.50;20.00;10.50
65556;PMS3003;52200;53.490;14.376;2024-02-26T07:31:25;30.80;14.20;7.60
65556;PMS3003;52200;53.490;14.376;2024-02-26T07:33:50;36.75;22.25;10.75
65556;PMS3003;52200;53.490;14.376;2024-02-26T07:36:16;25.75;15.25;10.00
65556;PMS3003;52200;53.490;14.376;2024-02-26T07:38:42;22.75;13.25;7.00
65556;PMS3003;52200;53.490;14.376;2024-02-26T07:41:07;24.00;12.75;7.00
65556;PMS3003;52200;53.490;14.376;2024-02-26T07:43:33;33.40;17.80;8.20
65556;PMS3003;52200;53.490;14.376;2024-02-26T07:45:59;25.25;13.50;8.50
65556;PMS3003;52200;53.490;14.376;2024-02-26T07:48:24;30.25;16.75;8.00
65556;PMS3003;52200;53.490;14.376;2024-02-26T07:50:50;23.25;12.50;8.00
65556;PMS3003;52200;53.490;14.376;2024-02-26T07:53:15;30.25;17.75;8.75
65556;PMS3003;52200;53.490;14.376;2024-02-26T07:55:41;29.50;14.75;7.00
65556;PMS3003;52200;53.490;14.376;2024-02-26T07:58:06;27.00;14.75;8.25
65556;PMS3003;52200;53.490;14.376;2024-02-26T08:00:32;25.75;17.00;10.75
65556;PMS3003;52200;53.490;14.376;2024-02-26T08:02:57;29.75;18.00;11.00
65556;PMS3003;52200;53.490;14.376;2024-02-26T08:05:23;27.50;16.75;9.00
65556;PMS3003;52200;53.490;14.376;2024-02-26T08:07:50;21.80;14.40;8.20
65556;PMS3003;52200;53.490;14.376;2024-02-26T08:10:15;27.50;18.25;10.50
65556;PMS3003;52200;53.490;14.376;2024-02-26T08:12:41;28.50;15.50;9.75
65556;PMS3003;52200;53.490;14.376;2024-02-26T08:15:07;32.25;17.75;8.25
65556;PMS3003;52200;53.490;14.376;2024-02-26T08:17:33;25.60;15.20;9.80
65556;PMS3003;52200;53.490;14.376;2024-02-26T08:19:59;31.25;17.25;9.50
65556;PMS3003;52200;53.490;14.376;2024-02-26T08:22:25;29.00;18.20;9.00
65556;PMS3003;52200;53.490;14.376;2024-02-26T08:24:50;32.25;18.25;10.25
65556;PMS3003;52200;53.490;14.376;2024-02-26T08:27:15;33.00;19.25;11.25
65556;PMS3003;52200;53.490;14.376;2024-02-26T08:29:41;25.25;16.50;9.00
65556;PMS3003;52200;53.490;14.376;2024-02-26T08:32:06;32.75;18.50;9.75
65556;PMS3003;52200;53.490;14.376;2024-02-26T08:34:32;34.50;20.75;10.25
65556;PMS3003;52200;53.490;14.376;2024-02-26T08:36:58;28.50;19.50;12.00
65556;PMS3003;52200;53.490;14.376;2024-02-26T08:39:23;35.50;20.75;13.00
65556;PMS3003;52200;53.490;14.376;2024-02-26T08:41:49;33.25;23.25;12.25
65556;PMS3003;52200;53.490;14.376;2024-02-26T08:44:15;29.80;22.80;11.40
65556;PMS3003;52200;53.490;14.376;2024-02-26T08:46:41;31.60;20.20;11.80
65556;PMS3003;52200;53.490;14.376;2024-02-26T08:49:06;35.50;20.50;10.00
65556;PMS3003;52200;53.490;14.376;2024-02-26T08:51:32;26.75;19.50;10.75
65556;PMS3003;52200;53.490;14.376;2024-02-26T08:53:57;30.00;20.00;10.50
65556;PMS3003;52200;53.490;14.376;2024-02-26T08:56:22;33.00;21.00;10.00
65556;PMS3003;52200;53.490;14.376;2024-02-26T08:58:48;31.25;19.50;10.25
65556;PMS3003;52200;53.490;14.376;2024-02-26T09:01:16;35.50;18.00;11.00
65556;PMS3003;52200;53.490;14.376;2024-02-26T09:03:42;31.60;21.40;11.40
65556;PMS3003;52200;53.490;14.376;2024-02-26T09:06:08;30.25;18.50;10.50
65556;PMS3003;52200;53.490;14.376;2024-02-26T09:08:33;28.25;18.00;11.00
65556;PMS3003;52200;53.490;14.376;2024-02-26T09:11:01;34.60;22.40;13.60
65556;PMS3003;52200;53.490;14.376;2024-02-26T09:13:26;29.00;20.25;11.00
65556;PMS3003;52200;53.490;14.376;2024-02-26T09:15:52;33.25;20.50;14.50
65556;PMS3003;52200;53.490;14.376;2024-02-26T09:18:17;28.00;20.00;12.25
65556;PMS3003;52200;53.490;14.376;2024-02-26T09:20:43;33.25;24.00;11.75
65556;PMS3003;52200;53.490;14.376;2024-02-26T09:23:08;33.50;21.75;11.00
65556;PMS3003;52200;53.490;14.376;2024-02-26T09:25:34;31.00;18.60;10.60
65556;PMS3003;52200;53.490;14.376;2024-02-26T09:28:00;28.00;19.50;11.50
65556;PMS3003;52200;53.490;14.376;2024-02-26T09:30:26;30.60;20.60;12.40
65556;PMS3003;52200;53.490;14.376;2024-02-26T09:32:52;40.00;24.00;13.00
65556;PMS3003;52200;53.490;14.376;2024-02-26T09:35:17;36.50;23.00;13.00
65556;PMS3003;52200;53.490;14.376;2024-02-26T09:37:43;39.50;26.75;13.00
65556;PMS3003;52200;53.490;14.376;2024-02-26T09:40:09;36.40;22.20;11.80
65556;PMS3003;52200;53.490;14.376;2024-02-26T09:42:41;35.00;24.40;13.80
65556;PMS3003;52200;53.490;14.376;2024-02-26T09:45:10;30.40;22.00;13.00
65556;PMS3003;52200;53.490;14.376;2024-02-26T09:47:41;36.00;23.20;14.00
65556;PMS3003;52200;53.490;14.376;2024-02-26T09:50:07;38.40;24.00;14.80
65556;PMS3003;52200;53.490;14.376;2024-02-26T09:52:34;33.80;26.00;14.20
65556;PMS3003;52200;53.490;14.376;2024-02-26T09:55:03;42.00;27.20;14.40
65556;PMS3003;52200;53.490;14.376;2024-02-26T09:57:29;40.20;28.80;16.20
65556;PMS3003;52200;53.490;14.376;2024-02-26T09:59:58;37.60;27.60;18.00
65556;PMS3003;52200;53.490;14.376;2024-02-26T10:02:28;38.40;25.20;17.00
65556;PMS3003;52200;53.490;14.376;2024-02-26T10:04:55;59.40;34.80;18.40
65556;PMS3003;52200;53.490;14.376;2024-02-26T10:07:26;47.40;32.00;20.00
65556;PMS3003;52200;53.490;14.376;2024-02-26T10:09:55;36.80;25.80;16.80
65556;PMS3003;52200;53.490;14.376;2024-02-26T10:12:21;37.40;26.60;15.20
65556;PMS3003;52200;53.490;14.376;2024-02-26T10:14:47;37.80;25.20;14.60
65556;PMS3003;52200;53.490;14.376;2024-02-26T10:17:12;30.25;20.50;14.00
65556;PMS3003;52200;53.490;14.376;2024-02-26T10:19:38;32.25;23.00;14.00
65556;PMS3003;52200;53.490;14.376;2024-02-26T10:22:03;33.75;22.00;13.00
65556;PMS3003;52200;53.490;14.376;2024-02-26T10:24:29;35.40;22.00;14.00
65556;PMS3003;52200;53.490;14.376;2024-02-26T10:26:56;33.80;23.00;14.20
65556;PMS3003;52200;53.490;14.376;2024-02-26T10:29:23;49.20;31.80;20.20
65556;PMS3003;52200;53.490;14.376;2024-02-26T10:31:53;39.80;27.20;15.00
65556;PMS3003;52200;53.490;14.376;2024-02-26T10:34:19;33.60;23.20;15.00
65556;PMS3003;52200;53.490;14.376;2024-02-26T10:36:45;36.60;26.40;15.80
65556;PMS3003;52200;53.490;14.376;2024-02-26T10:39:13;34.50;25.50;14.75
65556;PMS3003;52200;53.490;14.376;2024-02-26T10:41:42;42.20;28.20;16.80
65556;PMS3003;52200;53.490;14.376;2024-02-26T10:44:09;40.80;27.60;16.00
65556;PMS3003;52200;53.490;14.376;2024-02-26T10:46:36;37.20;26.00;15.80
65556;PMS3003;52200;53.490;14.376;2024-02-26T10:49:02;35.80;25.60;14.00
65556;PMS3003;52200;53.490;14.376;2024-02-26T10:51:29;35.50;24.75;15.75
65556;PMS3003;52200;53.490;14.376;2024-02-26T10:53:58;37.60;26.40;14.80
65556;PMS3003;52200;53.490;14.376;2024-02-26T10:56:29;35.80;25.20;17.40
65556;PMS3003;52200;53.490;14.376;2024-02-26T10:58:59;36.40;25.20;15.20
65556;PMS3003;52200;53.490;14.376;2024-02-26T11:01:25;35.20;22.40;15.00
65556;PMS3003;52200;53.490;14.376;2024-02-26T11:03:54;33.40;22.80;14.20
65556;PMS3003;52200;53.490;14.376;2024-02-26T11:06:21;40.20;27.40;16.40
65556;PMS3003;52200;53.490;14.376;2024-02-26T11:08:47;35.00;25.60;16.20
65556;PMS3003;52200;53.490;14.376;2024-02-26T11:11:14;35.60;26.80;16.80
65556;PMS3003;52200;53.490;14.376;2024-02-26T11:13:42;39.20;27.20;16.40
65556;PMS3003;52200;53.490;14.376;2024-02-26T11:16:13;36.20;26.60;17.00
65556;PMS3003;52200;53.490;14.376;2024-02-26T11:18:39;40.00;29.80;17.60
65556;PMS3003;52200;53.490;14.376;2024-02-26T11:21:07;40.00;25.00;14.00
65556;PMS3003;52200;53.490;14.376;2024-02-26T11:23:33;35.20;25.00;17.00
65556;PMS3003;52200;53.490;14.376;2024-02-26T11:26:02;36.00;25.80;16.60
65556;PMS3003;52200;53.490;14.376;2024-02-26T11:28:31;42.20;28.80;15.80
65556;PMS3003;52200;53.490;14.376;2024-02-26T11:30:58;38.40;26.00;16.60
65556;PMS3003;52200;53.490;14.376;2024-02-26T11:33:26;41.40;30.00;18.60
65556;PMS3003;52200;53.490;14.376;2024-02-26T11:35:53;43.40;31.20;18.40
65556;PMS3003;52200;53.490;14.376;2024-02-26T11:38:22;43.60;31.80;18.20
65556;PMS3003;52200;53.490;14.376;2024-02-26T11:40:49;41.20;31.60;18.40
65556;PMS3003;52200;53.490;14.376;2024-02-26T11:43:15;55.80;35.00;22.60
65556;PMS3003;52200;53.490;14.376;2024-02-26T11:48:23;65.40;45.40;26.20
65556;PMS3003;52200;53.490;14.376;2024-02-26T11:50:53;53.40;37.60;22.00
65556;PMS3003;52200;53.490;14.376;2024-02-26T11:58:41;60.40;42.80;26.40
65556;PMS3003;52200;53.490;14.376;2024-02-26T12:04:01;62.60;45.20;26.00
65556;PMS3003;52200;53.490;14.376;2024-02-26T12:06:29;67.80;47.40;29.20
65556;PMS3003;52200;53.490;14.376;2024-02-26T12:08:55;73.75;53.00;31.00
65556;PMS3003;52200;53.490;14.376;2024-02-26T12:11:21;76.50;53.00;30.75
65556;PMS3003;52200;53.490;14.376;2024-02-26T12:13:47;76.67;54.33;32.00
65556;PMS3003;52200;53.490;14.376;2024-02-26T12:16:35;75.20;50.40;30.60
65556;PMS3003;52200;53.490;14.376;2024-02-26T12:19:05;64.60;46.20;26.00
65556;PMS3003;52200;53.490;14.376;2024-02-26T12:21:33;60.00;43.40;25.40
65556;PMS3003;52200;53.490;14.376;2024-02-26T12:24:13;56.80;39.20;24.00
65556;PMS3003;52200;53.490;14.376;2024-02-26T12:26:41;51.80;38.40;23.20
65556;PMS3003;52200;53.490;14.376;2024-02-26T12:29:07;49.80;32.60;19.00
65556;PMS3003;52200;53.490;14.376;2024-02-26T12:31:33;49.80;33.80;19.00
65556;PMS3003;52200;53.490;14.376;2024-02-26T12:34:01;43.60;32.60;19.40
65556;PMS3003;52200;53.490;14.376;2024-02-26T12:36:28;51.60;35.60;20.80
65556;PMS3003;52200;53.490;14.376;2024-02-26T12:38:54;52.00;36.80;21.00
65556;PMS3003;52200;53.490;14.376;2024-02-26T12:41:20;45.40;33.40;18.00
65556;PMS3003;52200;53.490;14.376;2024-02-26T12:43:47;50.20;31.40;19.60
65556;PMS3003;52200;53.490;14.376;2024-02-26T12:46:12;33.00;24.50;14.25
65556;PMS3003;52200;53.490;14.376;2024-02-26T12:48:41;34.80;23.00;15.80
65556;PMS3003;52200;53.490;14.376;2024-02-26T12:51:08;32.00;22.60;12.60
65556;PMS3003;52200;53.490;14.376;2024-02-26T12:53:35;32.40;23.20;13.60
65556;PMS3003;52200;53.490;14.376;2024-02-26T12:56:00;30.25;19.75;12.00
65556;PMS3003;52200;53.490;14.376;2024-02-26T12:58:28;31.20;19.40;12.00
65556;PMS3003;52200;53.490;14.376;2024-02-26T13:00:55;32.60;20.00;11.60
65556;PMS3003;52200;53.490;14.376;2024-02-26T13:03:22;25.20;18.80;12.00
65556;PMS3003;52200;53.490;14.376;2024-02-26T13:05:48;34.40;22.20;12.00
65556;PMS3003;52200;53.490;14.376;2024-02-26T13:08:18;28.00;19.00;12.00
65556;PMS3003;52200;53.490;14.376;2024-02-26T13:10:46;29.40;17.80;11.40
65556;PMS3003;52200;53.490;14.376;2024-02-26T13:13:15;28.20;17.80;10.60
65556;PMS3003;52200;53.490;14.376;2024-02-26T13:15:42;28.40;18.60;11.60
65556;PMS3003;52200;53.490;14.376;2024-02-26T13:18:12;29.20;20.60;11.40
65556;PMS3003;52200;53.490;14.376;2024-02-26T13:20:39;29.00;18.00;11.40
65556;PMS3003;52200;53.490;14.376;2024-02-26T13:23:06;26.20;18.60;11.40
65556;PMS3003;52200;53.490;14.376;2024-02-26T13:25:34;31.60;19.00;11.00
65556;PMS3003;52200;53.490;14.376;2024-02-26T13:28:17;27.20;18.60;11.60
65556;PMS3003;52200;53.490;14.376;2024-02-26T13:30:52;34.60;20.20;12.00
65556;PMS3003;52200;53.490;14.376;2024-02-26T13:33:21;28.20;19.60;11.20
65556;PMS3003;52200;53.490;14.376;2024-02-26T13:35:48;31.20;21.60;13.00
65556;PMS3003;52200;53.490;14.376;2024-02-26T13:38:13;32.25;23.00;14.50
65556;PMS3003;52200;53.490;14.376;2024-02-26T13:40:39;34.25;22.00;12.00
65556;PMS3003;52200;53.490;14.376;2024-02-26T13:43:05;34.00;25.20;13.00
65556;PMS3003;52200;53.490;14.376;2024-02-26T13:45:33;28.00;20.25;11.00